Latest Weather Observations for Perth Airport

IDW60901

Issued at 5:21 am WST Tuesday 4 August 2020 (issued every 10 minutes, with the page automatically refreshed every 10 minutes)

About weather observations | Map of Perth area stations | Latest observations for Perth area | Other Formats
Station Details ID: 009021 Name: PERTH AIRPORT Lat: -31.93 Lon: 115.98 Height: 15.4 m
Data from the previous 72 hours. | See also: Recent months at Perth Airport
Date/Time
WST
Temp
°C
App
Temp
°C
Dew
Point
°C
Rel
Hum
%
Delta-T
°C
Wind Press
QNH
hPa
Press
MSL
hPa
Rain since
9am
mm
Dir  Spd
km/h
Gust
km/h
Spd
kts
Gust
kts
04/05:00am 6.8 3.0 5.9 94 0.4 SSW 15 17 8 9 1008.6 1008.6 11.6
04/04:30am 6.8 2.6 5.9 94 0.4 S 17 19 9 10 1008.4 1008.4 11.6
04/04:00am 7.1 3.4 6.2 94 0.4 SSE 15 19 8 10 1008.0 1008.0 11.6
04/03:30am 7.3 4.0 6.6 95 0.3 S 13 15 7 8 1008.4 1008.4 11.6
04/03:00am 7.0 4.8 6.1 94 0.4 SSW 7 11 4 6 1008.2 1008.2 11.6
04/02:30am 7.5 4.6 6.4 93 0.5 SSW 11 13 6 7 1008.0 1008.0 11.6
04/02:00am 8.1 4.9 7.0 93 0.5 S 13 15 7 8 1008.1 1008.1 11.6
04/01:30am 8.4 4.9 7.3 93 0.5 S 15 19 8 10 1008.2 1008.2 11.6
04/01:00am 8.4 4.5 7.3 93 0.5 SSW 17 19 9 10 1007.8 1007.8 11.6
04/12:30am 8.3 4.2 7.7 96 0.3 SSW 19 26 10 14 1007.7 1007.7 11.6
04/12:00am 7.7 5.3 7.0 95 0.3 S 9 11 5 6 1007.3 1007.3 11.6
 
Date/Time
WST
Temp
°C
App
Temp
°C
Dew
Point
°C
Rel
Hum
%
Delta-T
°C
Wind Press
QNH
hPa
Press
MSL
hPa
Rain since
9am
mm
Dir  Spd
km/h
Gust
km/h
Spd
kts
Gust
kts
03/11:30pm 7.3 5.1 6.4 94 0.4 S 7 9 4 5 1007.1 1007.1 11.6
03/11:00pm 7.9 5.1 6.8 93 0.5 S 11 13 6 7 1007.3 1007.3 11.6
03/10:30pm 8.8 6.2 7.7 93 0.5 SE 11 15 6 8 1007.2 1007.2 11.6
03/10:00pm 9.0 6.8 7.8 92 0.6 SSE 9 11 5 6 1007.3 1007.3 11.6
03/09:30pm 9.6 7.1 8.4 92 0.6 SSE 11 13 6 7 1007.5 1007.5 11.6
03/09:00pm 10.2 7.5 9.0 92 0.6 SSE 13 17 7 9 1007.5 1007.5 11.6
03/08:30pm 10.1 7.3 8.7 91 0.7 SE 13 15 7 8 1007.3 1007.3 11.6
03/08:00pm 10.1 7.4 8.9 92 0.6 ESE 13 15 7 8 1006.9 1006.9 11.6
03/07:30pm 10.0 7.6 8.8 92 0.6 E 11 15 6 8 1006.8 1006.8 11.6
03/07:00pm 10.2 7.4 8.6 90 0.8 NE 13 17 7 9 1006.4 1006.4 11.6
03/06:30pm 10.5 6.6 8.8 89 0.8 NE 19 26 10 14 1005.9 1005.9 11.6
03/06:00pm 10.2 4.3 9.0 92 0.6 NE 30 39 16 21 1005.1 1005.1 11.6
03/05:39pm 10.1 3.3 9.2 94 0.4 NE 35 44 19 24 1005.1 1005.1 11.4
03/05:30pm 10.1 3.9 9.2 94 0.4 NE 32 39 17 21 1005.4 1005.4 10.6
03/05:00pm 10.1 4.9 9.0 93 0.5 NE 26 30 14 16 1006.0 1006.0 7.8
03/04:51pm 10.1 5.3 9.0 93 0.5 NE 24 30 13 16 1006.1 1006.1 7.2
03/04:30pm 10.2 5.8 8.8 91 0.7 NE 22 30 12 16 1006.1 1006.1 6.0
03/04:00pm 10.7 6.3 9.0 89 0.8 NE 22 32 12 17 1006.5 1006.5 5.2
03/03:51pm 10.8 6.8 9.1 89 0.8 NE 20 32 11 17 1006.6 1006.6 5.0
03/03:30pm 10.8 6.8 9.2 90 0.8 NNE 20 28 11 15 1006.8 1006.8 4.8
03/03:14pm 11.0 7.7 9.6 91 0.7 NNE 17 22 9 12 1006.7 1006.7 4.6
03/03:00pm 11.0 7.2 9.1 88 0.9 NNE 19 26 10 14 1006.9 1006.9 4.4
03/02:56pm 11.1 7.2 8.8 86 1.1 NNE 19 24 10 13 1007.0 1007.0 4.0
03/02:30pm 11.8 8.0 9.0 83 1.4 NNE 19 26 10 14 1007.1 1007.1 3.8
03/02:00pm 11.4 8.8 9.3 87 1.1 NNE 13 17 7 9 1007.6 1007.6 3.6
03/01:40pm 11.4 9.0 8.6 83 1.4 N 11 15 6 8 1008.0 1008.0 3.2
03/01:30pm 11.6 8.7 9.5 87 1.1 N 15 19 8 10 1008.2 1008.2 3.0
03/01:27pm 11.4 8.3 9.0 85 1.2 N 15 19 8 10 1008.1 1008.1 3.0
03/01:00pm 13.1 9.8 9.7 80 1.7 N 17 20 9 11 1008.4 1008.4 2.4
03/12:30pm 11.3 8.1 8.5 83 1.4 NNE 15 20 8 11 1008.9 1008.9 2.4
03/12:00pm 10.9 8.0 8.3 84 1.3 NE 13 17 7 9 1009.3 1009.3 2.4
03/11:30am 10.0 6.5 8.8 92 0.6 NE 17 22 9 12 1009.9 1009.9 2.4
03/11:00am 9.9 7.9 8.7 92 0.6 NNE 9 13 5 7 1010.7 1010.7 2.0
03/10:30am 9.8 6.9 8.2 90 0.8 SSW 13 17 7 9 1010.9 1010.9 1.2
03/10:13am 10.4 7.3 8.8 90 0.8 SSW 15 19 8 10 1011.0 1011.0 0.6
03/10:00am 10.8 8.1 8.9 88 0.9 SW 13 19 7 10 1011.0 1011.0 0.6
03/09:30am 10.9 8.7 7.8 81 1.5 NNE 9 13 5 7 1010.5 1010.5 0.0
03/09:00am 10.7 7.4 8.1 84 1.3 NE 15 17 8 9 1010.3 1010.3 3.4
03/08:30am 9.4 6.4 7.7 89 0.8 NE 13 15 7 8 1010.4 1010.4 3.4
03/08:00am 8.3 5.3 7.5 95 0.4 NE 13 15 7 8 1010.5 1010.5 3.4
03/07:30am 6.6 4.0 6.0 96 0.3 ENE 9 13 5 7 1010.7 1010.7 3.4
03/07:00am 6.8 3.8 6.2 96 0.3 ENE 11 15 6 8 1010.5 1010.5 3.4
03/06:30am 6.8 4.2 6.1 95 0.3 NE 9 11 5 6 1010.4 1010.4 3.4
03/06:00am 7.0 4.1 6.3 95 0.3 NE 11 13 6 7 1010.4 1010.4 3.4
03/05:30am 6.9 4.3 6.2 95 0.3 NE 9 11 5 6 1010.6 1010.6 3.4
03/05:00am 7.1 4.6 6.4 95 0.3 ENE 9 13 5 7 1010.6 1010.6 3.4
03/04:30am 6.8 4.2 6.1 95 0.3 ESE 9 11 5 6 1010.8 1010.8 3.4
03/04:00am 6.9 4.7 6.2 95 0.3 NNE 7 9 4 5 1011.0 1011.0 3.4
03/03:30am 7.0 4.4 6.1 94 0.4 ESE 9 11 5 6 1011.5 1011.5 3.4
03/03:00am 7.5 4.6 6.4 93 0.5 N 11 13 6 7 1011.7 1011.7 3.4
03/02:30am 8.1 4.9 7.0 93 0.5 N 13 17 7 9 1011.9 1011.9 3.4
03/02:00am 8.4 6.0 7.2 92 0.6 NNE 9 9 5 5 1012.0 1012.0 3.4
03/01:30am 8.5 6.7 7.1 91 0.7 SSW 6 9 3 5 1012.7 1012.7 3.4
03/01:00am 8.9 5.3 6.9 87 0.9 SSE 15 19 8 10 1013.0 1013.0 3.4
03/12:30am 9.3 4.2 7.6 89 0.8 S 24 33 13 18 1013.8 1013.8 3.4
03/12:00am 9.5 2.8 7.3 86 1.0 SSW 32 37 17 20 1014.2 1014.2 3.4
 
Date/Time
WST
Temp
°C
App
Temp
°C
Dew
Point
°C
Rel
Hum
%
Delta-T
°C
Wind Press
QNH
hPa
Press
MSL
hPa
Rain since
9am
mm
Dir  Spd
km/h
Gust
km/h
Spd
kts
Gust
kts
02/11:30pm 10.2 4.9 8.3 88 0.9 SSW 26 33 14 18 1014.3 1014.3 3.4
02/11:00pm 10.4 4.7 8.5 88 0.9 SSW 28 37 15 20 1014.4 1014.4 3.4
02/10:30pm 10.5 5.0 9.3 92 0.6 SSW 28 37 15 20 1014.4 1014.4 3.2
02/10:00pm 11.6 7.2 10.5 93 0.6 SW 24 35 13 19 1014.3 1014.3 2.4
02/09:30pm 12.0 9.9 11.1 94 0.5 SW 13 19 7 10 1014.1 1014.1 1.4
02/09:00pm 12.1 7.8 10.7 91 0.7 SSW 24 30 13 16 1014.3 1014.3 0.8
02/08:57pm 12.2 7.4 10.4 89 0.9 SSW 26 30 14 16 1014.2 1014.2 0.6
02/08:30pm 11.7 11.5 10.3 91 0.7 NW 2 11 1 6 1014.0 1014.0 0.2
02/08:00pm 11.9 10.7 10.3 90 0.8 NNW 7 9 4 5 1014.2 1014.2 0.2
02/07:30pm 11.5 9.8 9.9 90 0.8 NNW 9 11 5 6 1014.5 1014.5 0.0
02/07:00pm 11.6 9.9 9.9 89 0.9 NNW 9 9 5 5 1014.8 1014.8 0.0
02/06:30pm 12.7 10.8 10.4 86 1.2 N 11 13 6 7 1015.0 1015.0 0.0
02/06:00pm 13.6 11.7 10.6 82 1.6 NNW 11 15 6 8 1015.1 1015.1 0.0
02/05:30pm 15.2 12.5 8.9 66 3.2 WNW 13 19 7 10 1015.2 1015.2 0.0
02/05:00pm 16.2 13.5 8.9 62 3.7 WNW 13 20 7 11 1015.5 1015.5 0.0
02/04:30pm 17.0 13.9 8.7 58 4.3 W 15 22 8 12 1015.6 1015.6 0.0
02/04:00pm 17.1 14.7 8.5 57 4.4 W 11 17 6 9 1015.8 1015.8 0.0
02/03:30pm 17.0 13.4 8.4 57 4.4 WSW 17 19 9 10 1016.0 1016.0 0.0
02/03:00pm 17.5 13.8 8.1 54 4.8 WSW 17 24 9 13 1016.1 1016.1 0.0
02/02:30pm 18.5 15.9 7.6 49 5.5 W 11 15 6 8 1016.4 1016.4 0.0
02/02:00pm 18.6 16.7 6.8 46 5.9 SSE 6 13 3 7 1016.8 1016.8 0.0
02/01:30pm 18.0 16.0 7.1 49 5.5 NW 7 13 4 7 1017.3 1017.3 0.0
02/01:00pm 17.2 14.7 6.4 49 5.3 WNW 9 13 5 7 1018.0 1018.0 0.0
02/12:30pm 17.4 16.2 6.6 49 5.3 SW 2 7 1 4 1018.6 1018.6 0.0
02/12:00pm 16.3 15.5 8.3 59 4.1 SW 2 7 1 4 1019.3 1019.3 0.0
02/11:30am 15.7 15.4 8.7 63 3.6 CALM 0 0 0 0 1019.9 1019.9 0.0
02/11:00am 14.3 12.7 8.0 66 3.1 SW 6 9 3 5 1020.5 1020.5 0.0
02/10:30am 13.5 12.7 8.1 70 2.7 W 2 7 1 4 1021.0 1021.0 0.0
02/10:00am 12.4 11.1 7.5 72 2.4 N 4 7 2 4 1021.3 1021.3 0.0
02/09:30am 11.1 10.4 8.7 85 1.2 NE 2 7 1 4 1021.3 1021.3 0.0
02/09:00am 10.1 9.6 7.9 86 1.1 CALM 0 0 0 0 1021.5 1021.5 0.0
02/08:30am 8.7 7.3 7.2 90 0.7 ENE 4 7 2 4 1021.5 1021.5 0.0
02/08:00am 8.0 6.0 6.9 93 0.5 NNE 7 9 4 5 1021.5 1021.5 0.0
02/07:30am 7.2 5.1 6.6 96 0.3 NE 7 7 4 4 1021.5 1021.5 0.0
02/07:00am 6.5 4.4 5.8 95 0.3 N 6 9 3 5 1021.4 1021.4 0.0
02/06:30am 6.2 3.9 5.5 95 0.3 NNW 7 9 4 5 1021.3 1021.3 0.0
02/06:00am 6.0 2.9 5.4 96 0.3 NNE 11 13 6 7 1020.9 1020.9 0.0
02/05:30am 4.7 2.1 4.1 96 0.3 NNE 7 9 4 5 1021.3 1021.3 0.0
02/05:00am 5.5 4.4 4.9 96 0.3 CALM 0 0 0 0 1021.2 1021.2 0.0
02/04:30am 5.0 2.6 4.4 96 0.3 NE 6 9 3 5 1021.3 1021.3 0.0
02/04:00am 4.8 2.4 4.2 96 0.3 NE 6 7 3 4 1021.7 1021.7 0.0
02/03:30am 5.5 2.6 4.9 96 0.3 E 9 9 5 5 1021.9 1021.9 0.0
02/03:00am 5.1 3.9 4.4 95 0.3 CALM 0 0 0 0 1022.3 1022.3 0.0
02/02:30am 5.5 4.3 4.8 95 0.3 CALM 0 0 0 0 1022.5 1022.5 0.0
02/02:00am 5.7 4.6 5.0 95 0.3 CALM 0 0 0 0 1022.7 1022.7 0.0
02/01:30am 6.0 4.9 5.3 95 0.3 CALM 0 0 0 0 1022.7 1022.7 0.0
02/01:00am 6.2 5.1 5.3 94 0.4 CALM 0 0 0 0 1023.0 1023.0 0.0
02/12:30am 6.4 5.4 5.7 95 0.3 CALM 0 0 0 0 1023.2 1023.2 0.0
02/12:00am 6.8 4.5 5.9 94 0.4 NE 7 7 4 4 1023.6 1023.6 0.0
 
Date/Time
WST
Temp
°C
App
Temp
°C
Dew
Point
°C
Rel
Hum
%
Delta-T
°C
Wind Press
QNH
hPa
Press
MSL
hPa
Rain since
9am
mm
Dir  Spd
km/h
Gust
km/h
Spd
kts
Gust
kts
01/11:30pm 6.9 4.8 6.0 94 0.4 E 6 7 3 4 1023.8 1023.8 0.0
01/11:00pm 7.1 6.2 6.2 94 0.4 CALM 0 9 0 5 1024.0 1024.0 0.0
01/10:30pm 7.6 6.8 6.5 93 0.5 CALM 0 0 0 0 1024.1 1024.1 0.0
01/10:00pm 8.1 7.4 6.9 92 0.6 CALM 0 0 0 0 1024.3 1024.3 0.0
01/09:30pm 9.1 8.6 7.7 91 0.7 CALM 0 0 0 0 1024.2 1024.2 0.0
01/09:00pm 10.2 9.5 8.5 89 0.8 ESE 2 7 1 4 1024.4 1024.4 0.0
01/08:30pm 11.9 9.6 9.1 83 1.4 S 11 13 6 7 1024.5 1024.5 0.0
01/08:00pm 13.3 10.5 9.9 80 1.7 S 15 19 8 10 1024.6 1024.6 0.0
01/07:30pm 13.6 10.7 9.8 78 2.0 S 15 17 8 9 1024.5 1024.5 0.0
01/07:00pm 13.5 10.9 9.4 76 2.1 S 13 17 7 9 1024.2 1024.2 0.0
01/06:30pm 14.2 11.7 9.6 74 2.4 SSW 13 17 7 9 1023.8 1023.8 0.0
01/06:00pm 14.8 12.3 9.6 71 2.7 SW 13 17 7 9 1023.5 1023.5 0.0
01/05:30pm 16.2 13.3 9.6 65 3.4 SW 15 20 8 11 1023.4 1023.4 0.0
01/05:00pm 16.7 14.0 9.1 61 3.9 SW 13 17 7 9 1023.1 1023.1 0.0
01/04:30pm 18.2 15.5 7.3 49 5.5 SSE 11 13 6 7 1023.1 1023.1 0.0
01/04:00pm 18.6 16.4 7.7 49 5.5 S 9 13 5 7 1023.0 1023.0 0.0
01/03:30pm 17.6 14.6 7.9 53 4.9 SSE 13 17 7 9 1023.1 1023.1 0.0
01/03:00pm 18.0 15.5 8.0 52 5.1 S 11 17 6 9 1023.0 1023.0 0.0
01/02:30pm 18.9 17.3 8.6 51 5.3 S 7 11 4 6 1023.2 1023.2 0.0
01/02:00pm 17.7 15.7 8.8 56 4.6 S 9 15 5 8 1023.5 1023.5 0.0
01/01:30pm 18.6 17.4 9.4 55 4.8 SSW 6 9 3 5 1023.9 1023.9 0.0
01/01:00pm 17.6 16.2 9.0 57 4.4 SSE 6 13 3 7 1024.6 1024.6 0.0
01/12:30pm 17.4 16.3 8.5 56 4.6 SW 4 11 2 6 1025.2 1025.2 0.0
01/12:00pm 17.2 15.3 8.9 58 4.3 E 9 19 5 10 1025.9 1025.9 0.0
01/11:30am 16.4 14.1 9.1 62 3.8 ESE 11 17 6 9 1026.3 1026.3 0.0
01/11:00am 15.5 12.8 9.0 65 3.3 E 13 17 7 9 1026.6 1026.6 0.0
01/10:30am 14.4 10.9 8.8 69 2.8 ESE 17 19 9 10 1026.7 1026.7 0.0
01/10:00am 13.5 8.2 8.6 72 2.4 E 26 30 14 16 1027.0 1027.0 0.0
01/09:30am 12.5 10.1 8.6 77 1.9 ENE 11 15 6 8 1027.0 1027.0 0.0
01/09:00am 11.8 10.2 8.6 81 1.6 NNE 7 11 4 6 1026.9 1026.9 0.0
01/08:30am 10.6 10.2 9.7 94 0.5 NW 2 7 1 4 1026.9 1026.9 0.0
01/08:00am 8.1 7.6 7.7 97 0.2 CALM 0 0 0 0 1026.6 1026.6 0.0
01/07:30am 5.4 3.1 4.8 96 0.3 NNW 6 9 3 5 1026.0 1026.0 0.0
01/07:00am 5.3 3.7 4.7 96 0.3 NNE 2 9 1 5 1025.6 1025.6 0.0
01/06:30am 5.4 4.2 4.8 96 0.3 CALM 0 7 0 4 1025.2 1025.2 0.0
01/06:00am 5.6 3.3 5.0 96 0.3 SSW 6 9 3 5 1024.9 1024.9 0.0
01/05:30am 5.9 3.1 5.2 95 0.3 SSW 9 11 5 6 1024.7 1024.7 0.0

Latest Capital City Observations: Canberra | Sydney | Melbourne | Brisbane | Adelaide | Perth | Hobart | Darwin

Other formats

Comma delimited format used in spreadsheet applications
http://www.bom.gov.au/fwo/IDW60901/IDW60901.94610.axf

JavaScript Object Notation format (JSON) in row-major order
http://www.bom.gov.au/fwo/IDW60901/IDW60901.94610.json

Data quality

Most of these data are generated automatically and are frequently updated. Quality checks on data are not normally performed. It is possible for incorrect values to appear. Refer to information at About Latest Weather Observations and please check the disclaimer before using these data.